sensor_id;sensor_type;location;lat;lon;timestamp;temperature;humidity
60860;DHT22;46694;54.382;9.708;2022-07-29T00:01:04;14.50;96.70
60860;DHT22;46694;54.382;9.708;2022-07-29T00:03:44;14.50;96.80
60860;DHT22;46694;54.382;9.708;2022-07-29T00:06:24;14.50;96.90
60860;DHT22;46694;54.382;9.708;2022-07-29T00:09:03;14.50;96.90
60860;DHT22;46694;54.382;9.708;2022-07-29T00:11:46;14.40;97.00
60860;DHT22;46694;54.382;9.708;2022-07-29T00:14:26;14.40;97.20
60860;DHT22;46694;54.382;9.708;2022-07-29T00:17:06;14.40;97.20
60860;DHT22;46694;54.382;9.708;2022-07-29T00:19:46;14.30;97.20
60860;DHT22;46694;54.382;9.708;2022-07-29T00:22:25;14.40;97.30
60860;DHT22;46694;54.382;9.708;2022-07-29T00:25:06;14.30;97.30
60860;DHT22;46694;54.382;9.708;2022-07-29T00:27:46;14.30;97.40
60860;DHT22;46694;54.382;9.708;2022-07-29T00:30:26;14.20;97.40
60860;DHT22;46694;54.382;9.708;2022-07-29T00:33:05;14.20;97.50
60860;DHT22;46694;54.382;9.708;2022-07-29T00:35:45;14.20;97.60
60860;DHT22;46694;54.382;9.708;2022-07-29T00:38:25;14.10;97.60
60860;DHT22;46694;54.382;9.708;2022-07-29T00:41:04;14.10;97.70
60860;DHT22;46694;54.382;9.708;2022-07-29T00:43:44;14.10;97.70
60860;DHT22;46694;54.382;9.708;2022-07-29T00:46:24;14.00;97.70
60860;DHT22;46694;54.382;9.708;2022-07-29T00:49:04;14.00;97.80
60860;DHT22;46694;54.382;9.708;2022-07-29T00:51:44;14.00;97.80
60860;DHT22;46694;54.382;9.708;2022-07-29T00:54:23;14.00;97.80
60860;DHT22;46694;54.382;9.708;2022-07-29T00:57:03;14.00;97.70
60860;DHT22;46694;54.382;9.708;2022-07-29T00:59:43;13.90;97.80
60860;DHT22;46694;54.382;9.708;2022-07-29T01:02:22;13.90;97.80
60860;DHT22;46694;54.382;9.708;2022-07-29T01:05:03;13.90;97.80
60860;DHT22;46694;54.382;9.708;2022-07-29T01:07:45;13.90;97.90
60860;DHT22;46694;54.382;9.708;2022-07-29T01:10:26;13.90;97.90
60860;DHT22;46694;54.382;9.708;2022-07-29T01:13:06;13.90;97.90
60860;DHT22;46694;54.382;9.708;2022-07-29T01:15:51;13.80;97.90
60860;DHT22;46694;54.382;9.708;2022-07-29T01:18:39;13.80;97.90
60860;DHT22;46694;54.382;9.708;2022-07-29T01:30:44;13.70;97.90
60860;DHT22;46694;54.382;9.708;2022-07-29T01:33:25;13.70;98.00
60860;DHT22;46694;54.382;9.708;2022-07-29T01:36:36;13.80;98.00
60860;DHT22;46694;54.382;9.708;2022-07-29T01:39:25;13.70;98.00
60860;DHT22;46694;54.382;9.708;2022-07-29T01:42:36;13.70;98.00
60860;DHT22;46694;54.382;9.708;2022-07-29T01:45:50;13.70;98.10
60860;DHT22;46694;54.382;9.708;2022-07-29T01:48:53;13.60;98.10
60860;DHT22;46694;54.382;9.708;2022-07-29T01:52:00;13.60;98.20
60860;DHT22;46694;54.382;9.708;2022-07-29T01:54:41;13.60;98.20
60860;DHT22;46694;54.382;9.708;2022-07-29T01:57:27;13.60;98.30
60860;DHT22;46694;54.382;9.708;2022-07-29T02:00:09;13.60;98.40
60860;DHT22;46694;54.382;9.708;2022-07-29T02:02:50;13.50;98.40
60860;DHT22;46694;54.382;9.708;2022-07-29T02:05:31;13.50;98.40
60860;DHT22;46694;54.382;9.708;2022-07-29T02:08:13;13.50;98.40
60860;DHT22;46694;54.382;9.708;2022-07-29T02:10:55;13.50;98.50
60860;DHT22;46694;54.382;9.708;2022-07-29T02:13:36;13.40;98.50
60860;DHT22;46694;54.382;9.708;2022-07-29T02:16:17;13.40;98.50
60860;DHT22;46694;54.382;9.708;2022-07-29T02:19:02;13.40;98.50
60860;DHT22;46694;54.382;9.708;2022-07-29T02:21:43;13.40;98.50
60860;DHT22;46694;54.382;9.708;2022-07-29T02:24:25;13.40;98.50
60860;DHT22;46694;54.382;9.708;2022-07-29T02:27:05;13.40;98.50
60860;DHT22;46694;54.382;9.708;2022-07-29T02:29:47;13.30;98.50
60860;DHT22;46694;54.382;9.708;2022-07-29T02:32:29;13.40;98.50
60860;DHT22;46694;54.382;9.708;2022-07-29T02:35:10;13.30;98.50
60860;DHT22;46694;54.382;9.708;2022-07-29T02:37:52;13.40;98.60
60860;DHT22;46694;54.382;9.708;2022-07-29T02:40:53;13.30;98.60
60860;DHT22;46694;54.382;9.708;2022-07-29T02:43:35;13.30;98.60
60860;DHT22;46694;54.382;9.708;2022-07-29T02:46:20;13.30;99.00
60860;DHT22;46694;54.382;9.708;2022-07-29T02:51:55;13.20;98.90
60860;DHT22;46694;54.382;9.708;2022-07-29T02:54:47;13.20;99.00
60860;DHT22;46694;54.382;9.708;2022-07-29T02:57:57;13.20;99.00
60860;DHT22;46694;54.382;9.708;2022-07-29T03:00:40;13.30;99.10
60860;DHT22;46694;54.382;9.708;2022-07-29T03:03:21;13.20;99.20
60860;DHT22;46694;54.382;9.708;2022-07-29T03:06:02;13.20;99.20
60860;DHT22;46694;54.382;9.708;2022-07-29T03:08:43;13.20;99.20
60860;DHT22;46694;54.382;9.708;2022-07-29T03:11:24;13.20;99.20
60860;DHT22;46694;54.382;9.708;2022-07-29T03:14:05;13.20;99.30
60860;DHT22;46694;54.382;9.708;2022-07-29T03:16:46;13.20;99.30
60860;DHT22;46694;54.382;9.708;2022-07-29T03:19:26;13.10;99.30
60860;DHT22;46694;54.382;9.708;2022-07-29T03:22:06;13.10;99.40
60860;DHT22;46694;54.382;9.708;2022-07-29T03:24:46;13.10;99.50
60860;DHT22;46694;54.382;9.708;2022-07-29T03:27:25;13.10;99.60
60860;DHT22;46694;54.382;9.708;2022-07-29T03:30:06;13.10;99.70
60860;DHT22;46694;54.382;9.708;2022-07-29T03:32:46;13.10;99.80
60860;DHT22;46694;54.382;9.708;2022-07-29T03:35:26;13.10;99.90
60860;DHT22;46694;54.382;9.708;2022-07-29T03:38:05;13.20;99.90
60860;DHT22;46694;54.382;9.708;2022-07-29T03:40:57;13.20;99.90
60860;DHT22;46694;54.382;9.708;2022-07-29T03:43:41;13.20;99.90
60860;DHT22;46694;54.382;9.708;2022-07-29T03:46:22;13.30;99.90
60860;DHT22;46694;54.382;9.708;2022-07-29T03:49:04;13.30;99.90
60860;DHT22;46694;54.382;9.708;2022-07-29T03:51:44;13.30;99.90
60860;DHT22;46694;54.382;9.708;2022-07-29T03:54:23;13.30;99.90
60860;DHT22;46694;54.382;9.708;2022-07-29T03:57:04;13.40;99.90
60860;DHT22;46694;54.382;9.708;2022-07-29T03:59:45;13.40;99.90
60860;DHT22;46694;54.382;9.708;2022-07-29T04:02:25;13.50;99.90
60860;DHT22;46694;54.382;9.708;2022-07-29T04:05:05;13.50;99.90
60860;DHT22;46694;54.382;9.708;2022-07-29T04:07:51;13.50;99.90
60860;DHT22;46694;54.382;9.708;2022-07-29T04:10:30;13.60;99.90
60860;DHT22;46694;54.382;9.708;2022-07-29T04:13:10;13.60;99.90
60860;DHT22;46694;54.382;9.708;2022-07-29T04:15:50;13.70;99.90
60860;DHT22;46694;54.382;9.708;2022-07-29T04:18:29;13.70;99.90
60860;DHT22;46694;54.382;9.708;2022-07-29T04:21:09;13.80;99.90
60860;DHT22;46694;54.382;9.708;2022-07-29T04:23:49;13.90;99.90
60860;DHT22;46694;54.382;9.708;2022-07-29T04:26:29;13.90;99.90
60860;DHT22;46694;54.382;9.708;2022-07-29T04:29:09;14.10;99.90
60860;DHT22;46694;54.382;9.708;2022-07-29T04:31:48;14.10;99.90
60860;DHT22;46694;54.382;9.708;2022-07-29T04:34:28;14.20;99.90
60860;DHT22;46694;54.382;9.708;2022-07-29T04:37:07;14.30;99.90
60860;DHT22;46694;54.382;9.708;2022-07-29T04:39:47;14.40;99.90
60860;DHT22;46694;54.382;9.708;2022-07-29T04:42:40;14.40;99.90
60860;DHT22;46694;54.382;9.708;2022-07-29T04:45:20;14.50;99.90
60860;DHT22;46694;54.382;9.708;2022-07-29T04:47:59;14.50;99.90
60860;DHT22;46694;54.382;9.708;2022-07-29T04:50:39;14.50;99.90
60860;DHT22;46694;54.382;9.708;2022-07-29T04:53:18;14.60;99.90
60860;DHT22;46694;54.382;9.708;2022-07-29T04:55:58;14.60;99.90
60860;DHT22;46694;54.382;9.708;2022-07-29T04:58:38;14.60;99.90
60860;DHT22;46694;54.382;9.708;2022-07-29T05:01:18;14.70;99.90
60860;DHT22;46694;54.382;9.708;2022-07-29T05:03:57;14.70;99.90
60860;DHT22;46694;54.382;9.708;2022-07-29T05:06:37;14.80;99.90
60860;DHT22;46694;54.382;9.708;2022-07-29T05:09:16;14.90;99.90
60860;DHT22;46694;54.382;9.708;2022-07-29T05:11:56;14.80;99.90
60860;DHT22;46694;54.382;9.708;2022-07-29T05:14:35;14.90;99.90
60860;DHT22;46694;54.382;9.708;2022-07-29T05:17:15;15.00;99.90
60860;DHT22;46694;54.382;9.708;2022-07-29T05:19:55;15.00;99.90
60860;DHT22;46694;54.382;9.708;2022-07-29T05:22:34;15.10;99.90
60860;DHT22;46694;54.382;9.708;2022-07-29T05:25:14;15.30;99.90
60860;DHT22;46694;54.382;9.708;2022-07-29T05:27:54;15.50;99.90
60860;DHT22;46694;54.382;9.708;2022-07-29T05:30:34;15.60;99.90
60860;DHT22;46694;54.382;9.708;2022-07-29T05:33:13;15.70;99.90
60860;DHT22;46694;54.382;9.708;2022-07-29T05:35:52;15.80;99.90
60860;DHT22;46694;54.382;9.708;2022-07-29T05:38:32;15.90;99.90
60860;DHT22;46694;54.382;9.708;2022-07-29T05:41:13;16.00;99.90
60860;DHT22;46694;54.382;9.708;2022-07-29T05:43:52;16.10;99.90
60860;DHT22;46694;54.382;9.708;2022-07-29T05:46:32;16.20;99.90
60860;DHT22;46694;54.382;9.708;2022-07-29T05:49:11;16.30;99.90
60860;DHT22;46694;54.382;9.708;2022-07-29T05:51:51;16.40;99.90
60860;DHT22;46694;54.382;9.708;2022-07-29T05:54:31;16.60;99.90
60860;DHT22;46694;54.382;9.708;2022-07-29T05:57:21;16.70;99.90
60860;DHT22;46694;54.382;9.708;2022-07-29T06:00:01;17.00;99.90
60860;DHT22;46694;54.382;9.708;2022-07-29T06:02:42;17.20;99.90
60860;DHT22;46694;54.382;9.708;2022-07-29T06:05:21;17.40;99.90
60860;DHT22;46694;54.382;9.708;2022-07-29T06:08:01;17.50;99.90
60860;DHT22;46694;54.382;9.708;2022-07-29T06:10:42;17.60;99.90
60860;DHT22;46694;54.382;9.708;2022-07-29T06:13:21;17.80;99.90
60860;DHT22;46694;54.382;9.708;2022-07-29T06:16:01;18.10;99.90
60860;DHT22;46694;54.382;9.708;2022-07-29T06:18:41;18.40;99.90
60860;DHT22;46694;54.382;9.708;2022-07-29T06:21:20;18.50;99.90
60860;DHT22;46694;54.382;9.708;2022-07-29T06:24:00;18.60;99.90
60860;DHT22;46694;54.382;9.708;2022-07-29T06:26:40;18.70;99.40
60860;DHT22;46694;54.382;9.708;2022-07-29T06:29:20;18.80;98.90
60860;DHT22;46694;54.382;9.708;2022-07-29T06:32:00;19.00;98.60
60860;DHT22;46694;54.382;9.708;2022-07-29T06:34:39;19.00;97.60
60860;DHT22;46694;54.382;9.708;2022-07-29T06:37:19;18.90;96.70
60860;DHT22;46694;54.382;9.708;2022-07-29T06:39:58;19.00;96.40
60860;DHT22;46694;54.382;9.708;2022-07-29T06:42:57;19.30;96.30
60860;DHT22;46694;54.382;9.708;2022-07-29T06:45:36;19.80;95.90
60860;DHT22;46694;54.382;9.708;2022-07-29T06:48:17;20.40;94.90
60860;DHT22;46694;54.382;9.708;2022-07-29T06:50:57;21.00;93.70
60860;DHT22;46694;54.382;9.708;2022-07-29T06:53:37;21.30;92.10
60860;DHT22;46694;54.382;9.708;2022-07-29T06:56:17;21.70;91.40
60860;DHT22;46694;54.382;9.708;2022-07-29T06:58:57;22.20;90.70
60860;DHT22;46694;54.382;9.708;2022-07-29T07:01:42;22.70;89.80
60860;DHT22;46694;54.382;9.708;2022-07-29T07:04:22;23.10;87.50
60860;DHT22;46694;54.382;9.708;2022-07-29T07:07:01;23.40;85.90
60860;DHT22;46694;54.382;9.708;2022-07-29T07:09:41;23.60;84.60
60860;DHT22;46694;54.382;9.708;2022-07-29T07:12:20;23.80;83.60
60860;DHT22;46694;54.382;9.708;2022-07-29T07:15:00;24.00;82.40
60860;DHT22;46694;54.382;9.708;2022-07-29T07:17:40;24.30;81.30
60860;DHT22;46694;54.382;9.708;2022-07-29T07:20:19;24.60;79.40
60860;DHT22;46694;54.382;9.708;2022-07-29T07:22:59;24.80;78.00
60860;DHT22;46694;54.382;9.708;2022-07-29T07:25:39;24.90;76.50
60860;DHT22;46694;54.382;9.708;2022-07-29T07:28:19;25.00;76.10
60860;DHT22;46694;54.382;9.708;2022-07-29T07:30:58;25.10;74.70
60860;DHT22;46694;54.382;9.708;2022-07-29T07:33:38;25.00;73.50
60860;DHT22;46694;54.382;9.708;2022-07-29T07:36:17;24.90;73.10
60860;DHT22;46694;54.382;9.708;2022-07-29T07:38:57;24.90;73.00
60860;DHT22;46694;54.382;9.708;2022-07-29T07:41:37;25.00;72.30
60860;DHT22;46694;54.382;9.708;2022-07-29T07:44:16;25.10;71.40
60860;DHT22;46694;54.382;9.708;2022-07-29T07:46:56;25.20;71.10
60860;DHT22;46694;54.382;9.708;2022-07-29T07:49:35;25.30;70.20
60860;DHT22;46694;54.382;9.708;2022-07-29T07:52:16;25.50;69.60
60860;DHT22;46694;54.382;9.708;2022-07-29T07:54:56;25.60;69.00
60860;DHT22;46694;54.382;9.708;2022-07-29T07:57:36;25.80;68.70
60860;DHT22;46694;54.382;9.708;2022-07-29T08:00:16;26.10;67.00
60860;DHT22;46694;54.382;9.708;2022-07-29T08:02:56;26.30;66.20
60860;DHT22;46694;54.382;9.708;2022-07-29T08:05:36;26.50;65.70
60860;DHT22;46694;54.382;9.708;2022-07-29T08:08:15;26.60;64.60
60860;DHT22;46694;54.382;9.708;2022-07-29T08:10:55;26.70;63.90
60860;DHT22;46694;54.382;9.708;2022-07-29T08:13:35;26.80;63.90
60860;DHT22;46694;54.382;9.708;2022-07-29T08:16:15;27.00;62.50
60860;DHT22;46694;54.382;9.708;2022-07-29T08:23:01;27.00;61.80
60860;DHT22;46694;54.382;9.708;2022-07-29T08:25:41;27.20;60.90
60860;DHT22;46694;54.382;9.708;2022-07-29T08:28:21;27.40;60.10
60860;DHT22;46694;54.382;9.708;2022-07-29T08:31:00;27.50;59.20
60860;DHT22;46694;54.382;9.708;2022-07-29T08:33:40;27.50;59.10
60860;DHT22;46694;54.382;9.708;2022-07-29T08:36:20;27.60;58.80
60860;DHT22;46694;54.382;9.708;2022-07-29T08:39:00;27.60;58.50
60860;DHT22;46694;54.382;9.708;2022-07-29T08:41:40;27.80;57.80
60860;DHT22;46694;54.382;9.708;2022-07-29T08:44:20;28.00;57.50
60860;DHT22;46694;54.382;9.708;2022-07-29T08:47:01;28.20;56.60
60860;DHT22;46694;54.382;9.708;2022-07-29T08:49:41;28.20;56.60
60860;DHT22;46694;54.382;9.708;2022-07-29T08:52:21;28.40;56.40
60860;DHT22;46694;54.382;9.708;2022-07-29T08:55:08;28.80;55.90
60860;DHT22;46694;54.382;9.708;2022-07-29T08:57:49;29.20;54.90
60860;DHT22;46694;54.382;9.708;2022-07-29T09:00:29;29.50;54.20
60860;DHT22;46694;54.382;9.708;2022-07-29T09:03:14;29.80;53.40
60860;DHT22;46694;54.382;9.708;2022-07-29T09:05:58;30.00;53.00
60860;DHT22;46694;54.382;9.708;2022-07-29T09:08:38;30.10;52.60
60860;DHT22;46694;54.382;9.708;2022-07-29T09:11:27;30.10;52.50
60860;DHT22;46694;54.382;9.708;2022-07-29T09:14:08;30.00;52.00
60860;DHT22;46694;54.382;9.708;2022-07-29T09:16:55;30.00;52.20
60860;DHT22;46694;54.382;9.708;2022-07-29T09:19:37;30.00;52.20
60860;DHT22;46694;54.382;9.708;2022-07-29T09:22:29;30.00;51.90
60860;DHT22;46694;54.382;9.708;2022-07-29T09:25:13;30.10;51.80
60860;DHT22;46694;54.382;9.708;2022-07-29T09:27:52;30.00;51.60
60860;DHT22;46694;54.382;9.708;2022-07-29T09:30:32;29.90;51.40
60860;DHT22;46694;54.382;9.708;2022-07-29T09:33:11;29.80;51.70
60860;DHT22;46694;54.382;9.708;2022-07-29T09:36:03;29.90;51.60
60860;DHT22;46694;54.382;9.708;2022-07-29T09:38:57;30.10;51.20
60860;DHT22;46694;54.382;9.708;2022-07-29T09:41:49;30.50;50.60
60860;DHT22;46694;54.382;9.708;2022-07-29T09:44:46;30.80;49.70
60860;DHT22;46694;54.382;9.708;2022-07-29T09:47:47;31.00;49.30
60860;DHT22;46694;54.382;9.708;2022-07-29T09:50:36;31.10;49.40
60860;DHT22;46694;54.382;9.708;2022-07-29T09:53:34;30.90;49.20
60860;DHT22;46694;54.382;9.708;2022-07-29T09:56:14;30.30;49.10
60860;DHT22;46694;54.382;9.708;2022-07-29T09:59:07;29.90;49.90
60860;DHT22;46694;54.382;9.708;2022-07-29T10:01:48;29.60;50.30
60860;DHT22;46694;54.382;9.708;2022-07-29T10:04:41;29.20;50.90
60860;DHT22;46694;54.382;9.708;2022-07-29T10:07:21;28.70;51.10
60860;DHT22;46694;54.382;9.708;2022-07-29T10:10:01;28.30;51.80
60860;DHT22;46694;54.382;9.708;2022-07-29T10:12:49;28.00;52.40
60860;DHT22;46694;54.382;9.708;2022-07-29T10:15:35;28.00;53.40
60860;DHT22;46694;54.382;9.708;2022-07-29T10:18:20;28.00;53.80
60860;DHT22;46694;54.382;9.708;2022-07-29T10:21:00;28.20;54.40
60860;DHT22;46694;54.382;9.708;2022-07-29T10:23:41;28.10;55.40
60860;DHT22;46694;54.382;9.708;2022-07-29T10:26:23;27.90;56.20
60860;DHT22;46694;54.382;9.708;2022-07-29T10:29:02;27.70;57.70
60860;DHT22;46694;54.382;9.708;2022-07-29T10:44:21;28.00;60.60
60860;DHT22;46694;54.382;9.708;2022-07-29T10:47:01;28.20;59.70
60860;DHT22;46694;54.382;9.708;2022-07-29T10:55:37;28.00;59.80
60860;DHT22;46694;54.382;9.708;2022-07-29T10:58:22;27.70;60.40
60860;DHT22;46694;54.382;9.708;2022-07-29T11:01:29;27.30;61.20
60860;DHT22;46694;54.382;9.708;2022-07-29T11:04:10;26.90;62.00
60860;DHT22;46694;54.382;9.708;2022-07-29T11:09:43;26.70;63.40
60860;DHT22;46694;54.382;9.708;2022-07-29T11:15:18;26.80;63.10
60860;DHT22;46694;54.382;9.708;2022-07-29T11:18:03;26.90;63.20
60860;DHT22;46694;54.382;9.708;2022-07-29T11:20:48;27.00;62.00
60860;DHT22;46694;54.382;9.708;2022-07-29T11:23:30;27.00;61.30
60860;DHT22;46694;54.382;9.708;2022-07-29T11:29:16;27.10;60.50
60860;DHT22;46694;54.382;9.708;2022-07-29T11:32:18;27.00;60.70
60860;DHT22;46694;54.382;9.708;2022-07-29T11:38:26;26.80;59.90
60860;DHT22;46694;54.382;9.708;2022-07-29T11:44:05;26.70;60.50
60860;DHT22;46694;54.382;9.708;2022-07-29T11:46:49;26.90;60.10
60860;DHT22;46694;54.382;9.708;2022-07-29T11:49:30;27.10;59.30
60860;DHT22;46694;54.382;9.708;2022-07-29T11:52:10;27.30;58.30
60860;DHT22;46694;54.382;9.708;2022-07-29T11:54:51;27.10;57.80
60860;DHT22;46694;54.382;9.708;2022-07-29T11:57:31;27.00;58.20
60860;DHT22;46694;54.382;9.708;2022-07-29T12:00:11;26.90;58.20
60860;DHT22;46694;54.382;9.708;2022-07-29T12:02:52;26.90;58.40
60860;DHT22;46694;54.382;9.708;2022-07-29T12:05:40;26.90;58.60
60860;DHT22;46694;54.382;9.708;2022-07-29T12:08:22;27.00;58.50
60860;DHT22;46694;54.382;9.708;2022-07-29T12:11:02;27.10;58.20
60860;DHT22;46694;54.382;9.708;2022-07-29T12:13:41;27.10;58.00
60860;DHT22;46694;54.382;9.708;2022-07-29T12:16:21;27.00;57.40
60860;DHT22;46694;54.382;9.708;2022-07-29T12:19:04;26.90;57.60
60860;DHT22;46694;54.382;9.708;2022-07-29T12:21:51;26.90;57.50
60860;DHT22;46694;54.382;9.708;2022-07-29T12:24:44;26.90;58.30
60860;DHT22;46694;54.382;9.708;2022-07-29T12:27:24;26.90;59.20
60860;DHT22;46694;54.382;9.708;2022-07-29T12:30:06;26.90;59.80
60860;DHT22;46694;54.382;9.708;2022-07-29T12:32:47;26.80;60.00
60860;DHT22;46694;54.382;9.708;2022-07-29T12:35:27;26.60;60.50
60860;DHT22;46694;54.382;9.708;2022-07-29T12:38:08;26.50;62.50
60860;DHT22;46694;54.382;9.708;2022-07-29T12:40:52;26.40;62.30
60860;DHT22;46694;54.382;9.708;2022-07-29T12:43:33;26.40;62.60
60860;DHT22;46694;54.382;9.708;2022-07-29T12:46:13;26.40;63.10
60860;DHT22;46694;54.382;9.708;2022-07-29T12:48:54;26.40;63.00
60860;DHT22;46694;54.382;9.708;2022-07-29T12:51:36;26.60;62.90
60860;DHT22;46694;54.382;9.708;2022-07-29T12:54:17;26.60;63.00
60860;DHT22;46694;54.382;9.708;2022-07-29T12:56:59;26.60;63.50
60860;DHT22;46694;54.382;9.708;2022-07-29T12:59:39;26.60;63.90
60860;DHT22;46694;54.382;9.708;2022-07-29T13:02:22;26.50;64.10
60860;DHT22;46694;54.382;9.708;2022-07-29T13:05:02;26.40;64.90
60860;DHT22;46694;54.382;9.708;2022-07-29T13:07:43;26.40;65.30
60860;DHT22;46694;54.382;9.708;2022-07-29T13:10:23;26.60;65.50
60860;DHT22;46694;54.382;9.708;2022-07-29T13:13:14;26.90;65.30
60860;DHT22;46694;54.382;9.708;2022-07-29T13:16:07;27.40;64.80
60860;DHT22;46694;54.382;9.708;2022-07-29T13:18:47;27.80;63.30
60860;DHT22;46694;54.382;9.708;2022-07-29T13:21:26;27.90;62.60
60860;DHT22;46694;54.382;9.708;2022-07-29T13:24:07;27.90;61.50
60860;DHT22;46694;54.382;9.708;2022-07-29T13:26:46;27.90;61.30
60860;DHT22;46694;54.382;9.708;2022-07-29T13:29:26;27.90;60.70
60860;DHT22;46694;54.382;9.708;2022-07-29T13:32:05;27.60;60.30
60860;DHT22;46694;54.382;9.708;2022-07-29T13:34:45;27.20;60.00
60860;DHT22;46694;54.382;9.708;2022-07-29T13:37:25;26.90;60.30
60860;DHT22;46694;54.382;9.708;2022-07-29T13:40:09;26.60;60.70
60860;DHT22;46694;54.382;9.708;2022-07-29T13:42:49;26.40;62.40
60860;DHT22;46694;54.382;9.708;2022-07-29T13:45:29;26.30;62.10
60860;DHT22;46694;54.382;9.708;2022-07-29T13:48:09;26.20;62.20
60860;DHT22;46694;54.382;9.708;2022-07-29T13:50:49;26.20;62.10
60860;DHT22;46694;54.382;9.708;2022-07-29T13:53:28;26.00;62.20
60860;DHT22;46694;54.382;9.708;2022-07-29T13:56:08;25.80;62.20
60860;DHT22;46694;54.382;9.708;2022-07-29T13:58:47;25.70;61.90
60860;DHT22;46694;54.382;9.708;2022-07-29T14:01:27;25.70;61.90
60860;DHT22;46694;54.382;9.708;2022-07-29T14:04:10;25.70;61.30
60860;DHT22;46694;54.382;9.708;2022-07-29T14:06:50;25.70;60.40
60860;DHT22;46694;54.382;9.708;2022-07-29T14:09:30;25.70;59.70
60860;DHT22;46694;54.382;9.708;2022-07-29T14:12:09;25.60;59.30
60860;DHT22;46694;54.382;9.708;2022-07-29T14:14:49;25.40;59.50
60860;DHT22;46694;54.382;9.708;2022-07-29T14:17:29;25.30;60.30
60860;DHT22;46694;54.382;9.708;2022-07-29T14:20:09;25.20;60.00
60860;DHT22;46694;54.382;9.708;2022-07-29T14:22:48;25.10;60.00
60860;DHT22;46694;54.382;9.708;2022-07-29T14:25:28;25.10;60.00
60860;DHT22;46694;54.382;9.708;2022-07-29T14:28:08;25.10;59.80
60860;DHT22;46694;54.382;9.708;2022-07-29T14:30:47;25.20;59.50
60860;DHT22;46694;54.382;9.708;2022-07-29T14:33:27;25.30;59.40
60860;DHT22;46694;54.382;9.708;2022-07-29T14:36:07;25.30;59.40
60860;DHT22;46694;54.382;9.708;2022-07-29T14:38:46;25.30;59.20
60860;DHT22;46694;54.382;9.708;2022-07-29T14:41:26;25.30;59.30
60860;DHT22;46694;54.382;9.708;2022-07-29T14:44:07;25.40;59.00
60860;DHT22;46694;54.382;9.708;2022-07-29T14:46:47;25.40;58.30
60860;DHT22;46694;54.382;9.708;2022-07-29T14:49:27;25.40;58.30
60860;DHT22;46694;54.382;9.708;2022-07-29T14:52:06;25.30;58.80
60860;DHT22;46694;54.382;9.708;2022-07-29T14:54:46;25.20;58.60
60860;DHT22;46694;54.382;9.708;2022-07-29T14:57:25;25.10;58.80
60860;DHT22;46694;54.382;9.708;2022-07-29T15:00:05;24.90;58.90
60860;DHT22;46694;54.382;9.708;2022-07-29T15:02:46;24.90;59.00
60860;DHT22;46694;54.382;9.708;2022-07-29T15:05:26;24.90;58.80
60860;DHT22;46694;54.382;9.708;2022-07-29T15:08:06;24.80;58.50
60860;DHT22;46694;54.382;9.708;2022-07-29T15:10:47;24.80;58.20
60860;DHT22;46694;54.382;9.708;2022-07-29T15:13:26;24.80;58.00
60860;DHT22;46694;54.382;9.708;2022-07-29T15:16:07;24.80;58.20
60860;DHT22;46694;54.382;9.708;2022-07-29T15:18:46;24.80;58.70
60860;DHT22;46694;54.382;9.708;2022-07-29T15:21:26;24.80;58.50
60860;DHT22;46694;54.382;9.708;2022-07-29T15:24:06;24.70;58.30
60860;DHT22;46694;54.382;9.708;2022-07-29T15:26:46;24.50;58.40
60860;DHT22;46694;54.382;9.708;2022-07-29T15:29:26;24.30;59.10
60860;DHT22;46694;54.382;9.708;2022-07-29T15:32:06;24.10;59.90
60860;DHT22;46694;54.382;9.708;2022-07-29T15:34:45;24.10;60.70
60860;DHT22;46694;54.382;9.708;2022-07-29T15:37:26;24.10;61.20
60860;DHT22;46694;54.382;9.708;2022-07-29T15:40:07;24.00;61.20
60860;DHT22;46694;54.382;9.708;2022-07-29T15:42:47;24.00;60.60
60860;DHT22;46694;54.382;9.708;2022-07-29T15:45:26;23.80;60.40
60860;DHT22;46694;54.382;9.708;2022-07-29T15:48:08;23.80;60.80
60860;DHT22;46694;54.382;9.708;2022-07-29T15:50:48;23.80;61.40
60860;DHT22;46694;54.382;9.708;2022-07-29T15:53:28;23.80;61.70
60860;DHT22;46694;54.382;9.708;2022-07-29T15:56:08;23.70;61.90
60860;DHT22;46694;54.382;9.708;2022-07-29T15:58:47;23.70;62.20
60860;DHT22;46694;54.382;9.708;2022-07-29T16:01:27;23.60;63.20
60860;DHT22;46694;54.382;9.708;2022-07-29T16:04:06;23.60;64.60
60860;DHT22;46694;54.382;9.708;2022-07-29T16:06:47;23.60;64.90
60860;DHT22;46694;54.382;9.708;2022-07-29T16:09:26;23.60;65.60
60860;DHT22;46694;54.382;9.708;2022-07-29T16:12:07;23.60;66.10
60860;DHT22;46694;54.382;9.708;2022-07-29T16:14:47;23.50;66.50
60860;DHT22;46694;54.382;9.708;2022-07-29T16:17:27;23.50;67.50
60860;DHT22;46694;54.382;9.708;2022-07-29T16:20:07;23.40;68.30
60860;DHT22;46694;54.382;9.708;2022-07-29T16:22:47;23.40;69.00
60860;DHT22;46694;54.382;9.708;2022-07-29T16:25:27;23.30;69.20
60860;DHT22;46694;54.382;9.708;2022-07-29T16:28:06;23.20;69.50
60860;DHT22;46694;54.382;9.708;2022-07-29T16:30:49;23.20;69.60
60860;DHT22;46694;54.382;9.708;2022-07-29T16:33:29;23.20;69.80
60860;DHT22;46694;54.382;9.708;2022-07-29T16:36:08;23.10;70.30
60860;DHT22;46694;54.382;9.708;2022-07-29T16:38:49;23.10;70.80
60860;DHT22;46694;54.382;9.708;2022-07-29T16:41:30;23.10;71.10
60860;DHT22;46694;54.382;9.708;2022-07-29T16:44:10;23.20;71.40
60860;DHT22;46694;54.382;9.708;2022-07-29T16:46:50;23.10;71.70
60860;DHT22;46694;54.382;9.708;2022-07-29T16:49:29;23.20;72.10
60860;DHT22;46694;54.382;9.708;2022-07-29T16:52:09;23.10;72.60
60860;DHT22;46694;54.382;9.708;2022-07-29T16:54:49;23.10;72.90
60860;DHT22;46694;54.382;9.708;2022-07-29T16:57:29;23.00;73.30
60860;DHT22;46694;54.382;9.708;2022-07-29T17:00:09;22.90;73.70
60860;DHT22;46694;54.382;9.708;2022-07-29T17:02:49;22.80;74.10
60860;DHT22;46694;54.382;9.708;2022-07-29T17:05:29;22.70;74.10
60860;DHT22;46694;54.382;9.708;2022-07-29T17:08:08;22.60;74.40
60860;DHT22;46694;54.382;9.708;2022-07-29T17:10:48;22.50;75.00
60860;DHT22;46694;54.382;9.708;2022-07-29T17:13:27;22.40;75.30
60860;DHT22;46694;54.382;9.708;2022-07-29T17:16:07;22.40;75.80
60860;DHT22;46694;54.382;9.708;2022-07-29T17:18:47;22.30;76.10
60860;DHT22;46694;54.382;9.708;2022-07-29T17:21:26;22.20;76.40
60860;DHT22;46694;54.382;9.708;2022-07-29T17:24:06;22.10;76.70
60860;DHT22;46694;54.382;9.708;2022-07-29T17:26:46;22.00;77.10
60860;DHT22;46694;54.382;9.708;2022-07-29T17:29:25;21.90;77.80
60860;DHT22;46694;54.382;9.708;2022-07-29T17:32:05;21.90;78.40
60860;DHT22;46694;54.382;9.708;2022-07-29T17:34:47;21.80;78.90
60860;DHT22;46694;54.382;9.708;2022-07-29T17:37:26;21.80;79.30
60860;DHT22;46694;54.382;9.708;2022-07-29T17:40:07;21.70;79.70
60860;DHT22;46694;54.382;9.708;2022-07-29T17:42:46;21.60;80.20
60860;DHT22;46694;54.382;9.708;2022-07-29T17:45:26;21.60;80.60
60860;DHT22;46694;54.382;9.708;2022-07-29T17:51:42;21.40;81.60
60860;DHT22;46694;54.382;9.708;2022-07-29T17:54:22;21.40;82.00